Time;durP1;ratioP1;P1;durP2;ratioP2;P2;SDS_P1;SDS_P2;PMS_P1;PMS_P2;Temp;Humidity;BMP_temperature;BMP_pressure;BME280_temperature;BME280_humidity;BME280_pressure;Samples;Min_cycle;Max_cycle;Signal;HPM_P1;HPM_P2
2021/03/01 00:05:10;;;;;;;9.68;8.30;;;;;;;;;;5009266;28;20159;31
2021/03/01 00:07:37;;;;;;;11.32;8.93;;;;;;;;;;4198708;34;20120;-53
2021/03/01 00:10:04;;;;;;;9.75;8.38;;;;;;;;;;4202113;34;20173;-50
2021/03/01 00:12:30;;;;;;;11.38;8.23;;;;;;;;;;4190147;34;20125;-52
2021/03/01 00:14:56;;;;;;;13.30;9.07;;;;;;;;;;4195691;34;20136;-48
2021/03/01 00:17:22;;;;;;;11.85;8.85;;;;;;;;;;4203187;34;20294;-47
2021/03/01 00:19:48;;;;;;;10.23;7.20;;;;;;;;;;4202318;34;20117;-49
2021/03/01 00:22:14;;;;;;;11.80;8.50;;;;;;;;;;4202316;34;20113;-53
2021/03/01 00:24:39;;;;;;;9.93;8.30;;;;;;;;;;4188832;34;20461;-51
2021/03/01 00:27:05;;;;;;;10.85;8.40;;;;;;;;;;4188830;34;20134;-50
2021/03/01 00:29:31;;;;;;;9.63;7.45;;;;;;;;;;4193316;34;20114;-47
2021/03/01 00:31:57;;;;;;;9.48;7.60;;;;;;;;;;4199907;34;20125;-48
2021/03/01 00:34:23;;;;;;;10.45;8.80;;;;;;;;;;4197850;34;20110;-47
2021/03/01 00:36:49;;;;;;;9.20;8.07;;;;;;;;;;4192690;34;20214;-50
2021/03/01 00:39:15;;;;;;;10.25;7.78;;;;;;;;;;4204274;34;20094;-47
2021/03/01 00:41:41;;;;;;;9.90;7.90;;;;;;;;;;4206358;34;20476;-53
2021/03/01 00:44:07;;;;;;;9.10;8.07;;;;;;;;;;4206074;34;20129;-49
2021/03/01 00:46:33;;;;;;;8.95;7.40;;;;;;;;;;4201585;34;20222;-49
2021/03/01 00:48:59;;;;;;;9.60;7.97;;;;;;;;;;4192258;34;20134;-48
2021/03/01 00:51:25;;;;;;;10.32;7.25;;;;;;;;;;4192457;34;20110;-48
2021/03/01 00:53:50;;;;;;;9.70;8.13;;;;;;;;;;4192137;34;20098;-49
2021/03/01 00:56:16;;;;;;;9.88;7.65;;;;;;;;;;4192289;34;20106;-49
2021/03/01 00:58:42;;;;;;;10.43;7.72;;;;;;;;;;4192509;34;20122;-50
2021/03/01 01:01:08;;;;;;;11.73;8.40;;;;;;;;;;4192254;34;20485;-49
2021/03/01 01:03:34;;;;;;;8.95;7.72;;;;;;;;;;4196362;34;20480;-52
2021/03/01 01:06:00;;;;;;;9.27;7.32;;;;;;;;;;4197276;34;20138;-50
2021/03/01 01:08:26;;;;;;;8.63;7.00;;;;;;;;;;4178516;34;20307;-49
2021/03/01 01:10:52;;;;;;;8.85;7.75;;;;;;;;;;4178504;34;20230;-52
2021/03/01 01:13:18;;;;;;;9.80;7.32;;;;;;;;;;4178289;34;20131;-51
2021/03/01 01:15:44;;;;;;;8.50;6.78;;;;;;;;;;4178374;34;20352;-47
2021/03/01 01:18:10;;;;;;;9.18;7.35;;;;;;;;;;4178639;34;20141;-52
2021/03/01 01:20:36;;;;;;;8.70;6.93;;;;;;;;;;4178228;34;20206;-51
2021/03/01 01:23:02;;;;;;;9.95;7.50;;;;;;;;;;4178543;34;20513;-50
2021/03/01 01:25:28;;;;;;;8.15;7.12;;;;;;;;;;4178486;34;20149;-52
2021/03/01 01:27:54;;;;;;;9.32;6.93;;;;;;;;;;4178431;34;20454;-47
2021/03/01 01:30:21;;;;;;;9.75;7.10;;;;;;;;;;4184306;34;20254;-48
2021/03/01 01:32:47;;;;;;;10.40;7.70;;;;;;;;;;4192162;34;20188;-49
2021/03/01 01:35:13;;;;;;;9.85;8.23;;;;;;;;;;4191777;34;20110;-49
2021/03/01 01:37:39;;;;;;;10.38;7.28;;;;;;;;;;4191955;34;20197;-47
2021/03/01 01:40:06;;;;;;;7.82;6.95;;;;;;;;;;4190913;34;20141;-51
2021/03/01 01:42:32;;;;;;;8.23;7.10;;;;;;;;;;4190717;34;20197;-49
2021/03/01 01:44:58;;;;;;;8.23;7.43;;;;;;;;;;4191693;34;20114;-48
2021/03/01 01:47:24;;;;;;;8.50;7.10;;;;;;;;;;4191735;34;20112;-49
2021/03/01 01:49:50;;;;;;;8.00;7.18;;;;;;;;;;4191742;34;20193;-49
2021/03/01 01:52:16;;;;;;;10.27;7.07;;;;;;;;;;4191996;34;20105;-49
2021/03/01 01:54:42;;;;;;;8.23;7.37;;;;;;;;;;4178907;34;20130;-49
2021/03/01 01:57:08;;;;;;;10.00;7.05;;;;;;;;;;4179046;34;20522;-52
2021/03/01 01:59:34;;;;;;;7.75;6.62;;;;;;;;;;4190440;34;20126;-51
2021/03/01 02:02:00;;;;;;;8.20;7.00;;;;;;;;;;4191799;34;20552;-49
2021/03/01 02:04:35;;;;;;;10.05;7.68;;;;;;;;;;4197453;34;20137;-47
2021/03/01 02:07:20;;;;;;;8.23;7.32;;;;;;;;;;4203773;34;20122;-47
2021/03/01 02:10:10;;;;;;;9.45;6.95;;;;;;;;;;4189831;34;20461;-49
2021/03/01 02:13:09;;;;;;;8.63;7.70;;;;;;;;;;4194394;34;20136;-48
2021/03/01 02:15:55;;;;;;;9.95;7.93;;;;;;;;;;4192557;34;20543;-48
2021/03/01 02:18:21;;;;;;;12.07;8.45;;;;;;;;;;4205370;34;20128;-49
2021/03/01 02:20:47;;;;;;;11.50;9.00;;;;;;;;;;4205568;34;20110;-50
2021/03/01 02:23:14;;;;;;;11.50;8.85;;;;;;;;;;4205326;34;20542;-50
2021/03/01 02:25:50;;;;;;;9.55;8.43;;;;;;;;;;4205071;34;20524;-49
2021/03/01 02:28:17;;;;;;;10.07;8.95;;;;;;;;;;4192359;34;20470;-52
2021/03/01 02:30:46;;;;;;;9.73;8.65;;;;;;;;;;4183867;34;20215;-51
2021/03/01 02:33:23;;;;;;;10.80;9.13;;;;;;;;;;4177715;34;20125;-49
2021/03/01 02:35:53;;;;;;;9.55;8.52;;;;;;;;;;4177905;34;20181;-53
2021/03/01 02:38:24;;;;;;;11.40;8.27;;;;;;;;;;4177755;34;20118;-52
2021/03/01 02:40:50;;;;;;;10.60;8.25;;;;;;;;;;4176384;34;20517;-48
2021/03/01 02:43:16;;;;;;;12.90;8.23;;;;;;;;;;4187555;34;20099;-46
2021/03/01 02:45:43;;;;;;;9.90;7.68;;;;;;;;;;4187533;34;20203;-50
2021/03/01 02:48:09;;;;;;;9.35;7.87;;;;;;;;;;4187772;34;20445;-55
2021/03/01 02:50:35;;;;;;;8.95;7.95;;;;;;;;;;4175735;34;20222;-53
2021/03/01 02:53:01;;;;;;;10.02;8.00;;;;;;;;;;4187502;34;20122;-52
2021/03/01 02:55:27;;;;;;;11.43;8.40;;;;;;;;;;4176167;34;20462;-59
2021/03/01 02:57:53;;;;;;;11.43;8.35;;;;;;;;;;4177390;34;20521;-50
2021/03/01 03:00:20;;;;;;;10.15;8.63;;;;;;;;;;4176898;34;20524;-50
2021/03/01 03:02:46;;;;;;;9.95;8.80;;;;;;;;;;4190024;34;20118;-50
2021/03/01 03:05:12;;;;;;;13.93;10.00;;;;;;;;;;4177818;34;20206;-50
2021/03/01 03:07:39;;;;;;;11.52;9.15;;;;;;;;;;4190347;34;20210;-51
2021/03/01 03:10:07;;;;;;;9.57;8.13;;;;;;;;;;4187179;34;20117;-49
2021/03/01 03:12:38;;;;;;;10.38;8.75;;;;;;;;;;4192450;34;20434;-54
2021/03/01 03:15:31;;;;;;;9.98;8.55;;;;;;;;;;4240258;28;20088;-50
2021/03/01 03:18:10;;;;;;;11.68;8.70;;;;;;;;;;4219855;33;20208;-48
2021/03/01 03:20:36;;;;;;;9.55;8.35;;;;;;;;;;4220459;33;20756;-49
2021/03/01 03:23:02;;;;;;;12.37;8.40;;;;;;;;;;4239185;33;20120;-54
2021/03/01 03:25:28;;;;;;;9.48;8.55;;;;;;;;;;4238669;33;20524;-46
2021/03/01 03:27:54;;;;;;;9.82;8.75;;;;;;;;;;4237943;33;20560;-48
2021/03/01 03:30:27;;;;;;;13.68;8.95;;;;;;;;;;4239349;33;20089;-49
2021/03/01 03:32:53;;;;;;;10.38;8.07;;;;;;;;;;4239248;33;20120;-50
2021/03/01 03:35:19;;;;;;;11.90;8.32;;;;;;;;;;4237783;33;20094;-48
2021/03/01 03:37:49;;;;;;;8.82;7.93;;;;;;;;;;4214255;33;20097;-52
2021/03/01 03:40:15;;;;;;;9.43;7.82;;;;;;;;;;4214805;33;20160;-48
2021/03/01 03:42:41;;;;;;;9.27;7.82;;;;;;;;;;4212942;33;20105;-47
2021/03/01 03:45:07;;;;;;;9.50;8.13;;;;;;;;;;4213473;33;20211;-48
2021/03/01 03:47:34;;;;;;;12.05;8.45;;;;;;;;;;4238773;33;20129;-49
2021/03/01 03:49:59;;;;;;;11.15;9.40;;;;;;;;;;4223137;33;20558;-50
2021/03/01 03:52:28;;;;;;;11.12;8.90;;;;;;;;;;4222232;33;20631;-49
2021/03/01 03:54:54;;;;;;;10.95;9.10;;;;;;;;;;4219453;33;20110;-49
2021/03/01 03:57:23;;;;;;;9.98;8.88;;;;;;;;;;4204811;33;20245;-51
2021/03/01 03:59:51;;;;;;;11.85;8.48;;;;;;;;;;4216655;34;20132;-54
2021/03/01 04:02:17;;;;;;;10.90;8.57;;;;;;;;;;4217830;33;20120;-55
2021/03/01 04:04:43;;;;;;;10.23;7.18;;;;;;;;;;4203267;34;20505;-54
2021/03/01 04:07:09;;;;;;;11.55;8.45;;;;;;;;;;4219084;34;20121;-52
2021/03/01 04:09:35;;;;;;;11.02;8.65;;;;;;;;;;4205280;34;20109;-49
2021/03/01 04:12:02;;;;;;;9.20;8.15;;;;;;;;;;4204760;34;20118;-50
2021/03/01 04:14:28;;;;;;;11.20;8.55;;;;;;;;;;4231422;33;20109;-52
2021/03/01 04:16:56;;;;;;;9.23;7.85;;;;;;;;;;4218031;33;20225;-53
2021/03/01 04:19:23;;;;;;;9.80;8.25;;;;;;;;;;4207543;33;20531;-50
2021/03/01 04:21:48;;;;;;;10.43;7.97;;;;;;;;;;4207425;33;20207;-51
2021/03/01 04:24:15;;;;;;;12.10;8.38;;;;;;;;;;4209792;33;20140;-47
2021/03/01 04:26:41;;;;;;;8.13;7.32;;;;;;;;;;4209830;33;20591;-47
2021/03/01 04:29:07;;;;;;;8.75;7.65;;;;;;;;;;4221487;33;20203;-52
2021/03/01 04:31:33;;;;;;;8.35;7.40;;;;;;;;;;4207570;34;20101;-50
2021/03/01 04:33:59;;;;;;;8.40;7.50;;;;;;;;;;4207424;34;20551;-47
2021/03/01 04:36:25;;;;;;;8.77;7.82;;;;;;;;;;4207124;34;20209;-49
2021/03/01 04:38:51;;;;;;;8.80;7.30;;;;;;;;;;4207144;34;20121;-48
2021/03/01 04:41:17;;;;;;;10.88;8.00;;;;;;;;;;4207146;34;20113;-48
2021/03/01 04:43:43;;;;;;;9.27;8.23;;;;;;;;;;4219938;34;20109;-53
2021/03/01 04:46:10;;;;;;;10.50;8.38;;;;;;;;;;4206905;34;20204;-46
2021/03/01 04:48:36;;;;;;;12.20;8.57;;;;;;;;;;4207188;34;20192;-50
2021/03/01 04:51:02;;;;;;;9.98;8.77;;;;;;;;;;4207187;34;20437;-49
2021/03/01 04:53:28;;;;;;;9.40;8.40;;;;;;;;;;4206948;34;20105;-50
2021/03/01 04:55:54;;;;;;;10.70;8.18;;;;;;;;;;4219836;33;20112;-47
2021/03/01 04:58:20;;;;;;;10.00;8.32;;;;;;;;;;4218540;33;20429;-51
2021/03/01 05:00:46;;;;;;;9.95;8.02;;;;;;;;;;4220639;33;20124;-52
2021/03/01 05:03:12;;;;;;;12.05;8.45;;;;;;;;;;4220789;33;20113;-54
2021/03/01 05:05:38;;;;;;;9.85;8.73;;;;;;;;;;4209177;33;20159;-52
2021/03/01 05:08:05;;;;;;;11.05;8.45;;;;;;;;;;4233720;33;20124;-49
2021/03/01 05:10:32;;;;;;;11.23;8.93;;;;;;;;;;4220657;33;20532;-50
2021/03/01 05:12:58;;;;;;;10.85;8.98;;;;;;;;;;4209165;33;20124;-47
2021/03/01 05:15:24;;;;;;;14.77;9.80;;;;;;;;;;4233713;33;20544;-50
2021/03/01 05:17:50;;;;;;;12.55;9.50;;;;;;;;;;4233764;33;20135;-50
2021/03/01 05:20:16;;;;;;;12.20;9.63;;;;;;;;;;4233699;33;20532;-50
2021/03/01 05:22:42;;;;;;;11.63;10.43;;;;;;;;;;4233631;33;20105;-52
2021/03/01 05:25:08;;;;;;;12.52;10.27;;;;;;;;;;4233566;33;20105;-54
2021/03/01 05:27:34;;;;;;;12.20;10.68;;;;;;;;;;4233526;33;20109;-48
2021/03/01 05:30:02;;;;;;;11.80;10.30;;;;;;;;;;4220569;33;20108;-49
2021/03/01 05:32:28;;;;;;;12.02;9.95;;;;;;;;;;4221831;33;20102;-50
2021/03/01 05:34:54;;;;;;;14.23;10.75;;;;;;;;;;4219320;34;20124;-48
2021/03/01 05:37:20;;;;;;;11.48;9.90;;;;;;;;;;4219454;34;20501;-49
2021/03/01 05:39:46;;;;;;;11.73;9.55;;;;;;;;;;4219458;34;20109;-49
2021/03/01 05:42:12;;;;;;;10.95;9.57;;;;;;;;;;4219285;34;20566;-48
2021/03/01 05:44:40;;;;;;;12.07;9.20;;;;;;;;;;4219462;34;20121;-49
2021/03/01 05:47:06;;;;;;;10.75;9.40;;;;;;;;;;4219443;34;20113;-50
2021/03/01 05:49:32;;;;;;;13.52;9.25;;;;;;;;;;4195070;34;20129;-49
2021/03/01 05:51:58;;;;;;;11.82;9.02;;;;;;;;;;4194680;34;20133;-50
2021/03/01 05:54:27;;;;;;;10.88;8.77;;;;;;;;;;4219160;34;20521;-49
2021/03/01 05:56:54;;;;;;;12.15;10.35;;;;;;;;;;4206264;34;20102;-49
2021/03/01 05:59:20;;;;;;;13.32;10.45;;;;;;;;;;4216650;33;20101;-52
2021/03/01 06:01:46;;;;;;;12.35;9.88;;;;;;;;;;4233070;33;20604;-50
2021/03/01 06:04:12;;;;;;;13.27;10.35;;;;;;;;;;4232991;33;20089;-49
2021/03/01 06:06:39;;;;;;;10.98;8.82;;;;;;;;;;4233147;33;20532;-49
2021/03/01 06:09:05;;;;;;;11.32;9.18;;;;;;;;;;4232967;33;20462;-50
2021/03/01 06:11:31;;;;;;;9.88;8.88;;;;;;;;;;4233037;33;20204;-52
2021/03/01 06:14:02;;;;;;;9.98;8.98;;;;;;;;;;4220060;33;20400;-47
2021/03/01 06:16:29;;;;;;;12.60;9.30;;;;;;;;;;4232934;33;20147;-49
2021/03/01 06:18:55;;;;;;;9.95;8.43;;;;;;;;;;4233090;33;20101;-48
2021/03/01 06:21:22;;;;;;;10.32;9.25;;;;;;;;;;4220288;33;20109;-52
2021/03/01 06:23:48;;;;;;;9.90;8.82;;;;;;;;;;4220046;33;20109;-47
2021/03/01 06:26:27;;;;;;;10.85;9.68;;;;;;;;;;4219487;33;20117;-51
2021/03/01 06:29:06;;;;;;;10.00;9.00;;;;;;;;;;4233051;33;20184;-55
2021/03/01 06:31:39;;;;;;;10.88;8.55;;;;;;;;;;4232968;33;20124;-48
2021/03/01 06:34:28;;;;;;;9.95;8.38;;;;;;;;;;4232799;33;20563;-49
2021/03/01 06:37:03;;;;;;;11.80;8.30;;;;;;;;;;4232917;33;20129;-51
2021/03/01 06:39:32;;;;;;;9.68;7.90;;;;;;;;;;4233116;33;20537;-54
2021/03/01 06:42:05;;;;;;;8.52;7.50;;;;;;;;;;4232707;33;20549;-52
2021/03/01 06:44:31;;;;;;;9.52;8.63;;;;;;;;;;4220889;33;20085;-51
2021/03/01 06:46:57;;;;;;;9.70;7.97;;;;;;;;;;4232682;33;20100;-52
2021/03/01 06:49:23;;;;;;;11.07;9.27;;;;;;;;;;4232725;33;20116;-52
2021/03/01 06:51:49;;;;;;;9.25;8.25;;;;;;;;;;4232671;33;20125;-55
2021/03/01 06:54:22;;;;;;;10.50;8.32;;;;;;;;;;4232638;33;20133;-49
2021/03/01 06:56:48;;;;;;;10.63;9.05;;;;;;;;;;4232560;33;20108;-51
2021/03/01 06:59:15;;;;;;;10.15;8.85;;;;;;;;;;4219409;33;20537;-51
2021/03/01 07:01:44;;;;;;;9.00;8.10;;;;;;;;;;4232446;33;20160;-51
2021/03/01 07:04:17;;;;;;;9.18;8.25;;;;;;;;;;4232646;33;20105;-51
2021/03/01 07:06:43;;;;;;;10.18;7.90;;;;;;;;;;4220198;33;20481;-53
2021/03/01 07:09:16;;;;;;;8.85;7.95;;;;;;;;;;4232747;33;20109;-52
2021/03/01 07:11:42;;;;;;;9.63;8.38;;;;;;;;;;4232475;33;20283;-52
2021/03/01 07:14:10;;;;;;;9.35;8.25;;;;;;;;;;4232606;33;20148;-51
2021/03/01 07:16:40;;;;;;;8.90;8.00;;;;;;;;;;4232275;33;20520;-49
2021/03/01 07:19:08;;;;;;;8.70;7.87;;;;;;;;;;4232362;33;20116;-51
2021/03/01 07:21:36;;;;;;;8.60;7.80;;;;;;;;;;4232662;33;20121;-52
2021/03/01 07:24:02;;;;;;;9.30;7.85;;;;;;;;;;4232370;33;20694;-51
2021/03/01 07:26:28;;;;;;;10.32;8.25;;;;;;;;;;4207932;33;20519;-48
2021/03/01 07:29:11;;;;;;;9.75;8.07;;;;;;;;;;4232401;33;20117;-46
2021/03/01 07:31:42;;;;;;;8.98;7.28;;;;;;;;;;4232348;33;20135;-46
2021/03/01 07:34:08;;;;;;;8.32;7.10;;;;;;;;;;4219863;33;20211;-47
2021/03/01 07:36:34;;;;;;;8.75;7.57;;;;;;;;;;4231676;33;20176;-47
2021/03/01 07:39:04;;;;;;;9.60;7.90;;;;;;;;;;4231979;33;20105;-52
2021/03/01 07:41:30;;;;;;;9.65;7.25;;;;;;;;;;4232488;33;20121;-52
2021/03/01 07:43:56;;;;;;;9.15;7.82;;;;;;;;;;4232083;33;20449;-48
2021/03/01 07:46:30;;;;;;;9.35;8.35;;;;;;;;;;4207637;33;20203;-50
2021/03/01 07:48:56;;;;;;;11.27;8.40;;;;;;;;;;4219376;33;20102;-50
2021/03/01 07:51:46;;;;;;;8.20;7.37;;;;;;;;;;4232031;33;20205;-47
2021/03/01 07:54:15;;;;;;;9.88;8.30;;;;;;;;;;4213857;33;20539;-47
2021/03/01 07:56:42;;;;;;;10.68;8.18;;;;;;;;;;4232116;33;20090;-51
2021/03/01 07:59:09;;;;;;;11.75;8.73;;;;;;;;;;4231999;33;20504;-50
2021/03/01 08:01:36;;;;;;;9.95;7.95;;;;;;;;;;4231945;33;20525;-50
2021/03/01 08:04:02;;;;;;;11.00;7.78;;;;;;;;;;4232020;33;20121;-47
2021/03/01 08:06:57;;;;;;;8.35;7.45;;;;;;;;;;4231921;33;20096;-54
2021/03/01 08:09:45;;;;;;;8.30;7.37;;;;;;;;;;4232177;33;20106;-50
2021/03/01 08:12:12;;;;;;;11.30;8.32;;;;;;;;;;4232025;33;20106;-52
2021/03/01 08:14:50;;;;;;;9.23;7.70;;;;;;;;;;4216910;33;20121;-50
2021/03/01 08:17:31;;;;;;;9.07;7.78;;;;;;;;;;4224016;33;20164;-48
2021/03/01 08:20:12;;;;;;;10.02;7.95;;;;;;;;;;4226273;33;20173;-53
2021/03/01 08:23:04;;;;;;;11.93;7.97;;;;;;;;;;4231943;33;20152;-51
2021/03/01 08:25:44;;;;;;;10.73;8.55;;;;;;;;;;4217705;33;20109;-50
2021/03/01 08:28:22;;;;;;;12.02;9.30;;;;;;;;;;4217634;34;20093;-52
2021/03/01 08:31:18;;;;;;;11.60;8.98;;;;;;;;;;4217999;34;20094;-45
2021/03/01 08:33:45;;;;;;;10.83;8.87;;;;;;;;;;4216332;34;20181;-48
2021/03/01 08:36:14;;;;;;;11.10;8.38;;;;;;;;;;4204949;34;20124;-55
2021/03/01 08:38:43;;;;;;;11.63;7.80;;;;;;;;;;4217677;34;20132;-53
2021/03/01 08:41:13;;;;;;;8.80;7.55;;;;;;;;;;4217672;34;20106;-50
2021/03/01 08:43:48;;;;;;;10.32;8.38;;;;;;;;;;4205012;34;20097;-56
2021/03/01 08:46:15;;;;;;;10.07;7.75;;;;;;;;;;4217653;34;20137;-48
2021/03/01 08:48:42;;;;;;;8.82;7.93;;;;;;;;;;4220346;33;20109;-51
2021/03/01 08:51:10;;;;;;;11.82;8.32;;;;;;;;;;4234016;33;20596;-51
2021/03/01 08:53:38;;;;;;;10.25;8.68;;;;;;;;;;4233647;33;20117;-52
2021/03/01 08:56:04;;;;;;;9.68;8.32;;;;;;;;;;4233730;33;20176;-46
2021/03/01 08:58:33;;;;;;;9.32;8.32;;;;;;;;;;4233816;33;20472;-47
2021/03/01 09:01:00;;;;;;;10.00;8.90;;;;;;;;;;4221006;33;20223;-47
2021/03/01 09:03:31;;;;;;;10.88;8.30;;;;;;;;;;4209397;33;20464;-47
2021/03/01 09:06:03;;;;;;;9.68;8.45;;;;;;;;;;4233894;33;20120;-51
2021/03/01 09:08:48;;;;;;;9.57;8.32;;;;;;;;;;4233652;33;20207;-55
2021/03/01 09:11:16;;;;;;;9.50;8.07;;;;;;;;;;4233899;33;20094;-46
2021/03/01 09:13:52;;;;;;;9.60;8.52;;;;;;;;;;4220159;33;20567;-56
2021/03/01 09:16:23;;;;;;;9.80;7.82;;;;;;;;;;4237893;33;20113;-50
2021/03/01 09:18:59;;;;;;;10.07;7.68;;;;;;;;;;4220317;33;20105;-47
2021/03/01 09:21:26;;;;;;;10.77;8.18;;;;;;;;;;4233554;33;20106;-51
2021/03/01 09:23:52;;;;;;;10.75;7.80;;;;;;;;;;4233545;33;20571;-49
2021/03/01 09:26:30;;;;;;;10.07;8.00;;;;;;;;;;4233682;33;20109;-52
2021/03/01 09:28:57;;;;;;;12.05;7.78;;;;;;;;;;4221619;33;20208;-50
2021/03/01 09:31:23;;;;;;;10.32;8.00;;;;;;;;;;4233375;33;20136;-49
2021/03/01 09:33:49;;;;;;;11.68;8.00;;;;;;;;;;4233436;33;20132;-47
2021/03/01 09:36:15;;;;;;;11.18;8.77;;;;;;;;;;4233359;33;20556;-53
2021/03/01 09:38:42;;;;;;;12.60;7.97;;;;;;;;;;4233535;33;20140;-53
2021/03/01 09:41:09;;;;;;;10.95;8.02;;;;;;;;;;4233458;33;20125;-50
2021/03/01 09:43:36;;;;;;;9.90;7.95;;;;;;;;;;4233335;33;20270;-50
2021/03/01 09:46:02;;;;;;;10.25;7.93;;;;;;;;;;4233505;33;20571;-49
2021/03/01 09:48:31;;;;;;;11.48;7.72;;;;;;;;;;4233393;33;20196;-49
2021/03/01 09:50:57;;;;;;;10.05;7.78;;;;;;;;;;4197343;34;20101;-53
2021/03/01 09:53:24;;;;;;;10.05;7.90;;;;;;;;;;4206419;34;20122;-51
2021/03/01 09:56:03;;;;;;;10.45;7.78;;;;;;;;;;4206270;34;20130;-51
2021/03/01 09:58:32;;;;;;;9.25;7.70;;;;;;;;;;4215107;33;20104;-49
2021/03/01 10:01:18;;;;;;;11.98;8.48;;;;;;;;;;4220509;33;20521;-48
2021/03/01 10:03:49;;;;;;;11.90;8.85;;;;;;;;;;4233391;33;20202;-47
2021/03/01 10:06:43;;;;;;;10.18;7.22;;;;;;;;;;4225158;33;20514;-52
2021/03/01 10:09:10;;;;;;;13.07;8.82;;;;;;;;;;4226630;33;20134;-53
2021/03/01 10:12:16;;;;;;;12.45;8.75;;;;;;;;;;4222324;33;20133;-53
2021/03/01 10:15:11;;;;;;;12.80;8.02;;;;;;;;;;4225006;33;20591;-52
2021/03/01 10:17:37;;;;;;;12.52;9.40;;;;;;;;;;4216611;33;20511;-51
2021/03/01 10:20:10;;;;;;;10.85;8.60;;;;;;;;;;4207641;34;20112;-48
2021/03/01 10:22:58;;;;;;;9.48;7.40;;;;;;;;;;4221724;33;20709;-51
2021/03/01 10:25:31;;;;;;;9.73;7.65;;;;;;;;;;4232925;33;20117;-53
2021/03/01 10:27:57;;;;;;;10.35;8.43;;;;;;;;;;4233050;33;20143;-51
2021/03/01 10:30:23;;;;;;;10.40;7.95;;;;;;;;;;4232983;33;20132;-51
2021/03/01 10:32:49;;;;;;;9.15;7.85;;;;;;;;;;4220998;33;20122;-54
2021/03/01 10:35:18;;;;;;;10.25;8.63;;;;;;;;;;4205929;34;20243;-54
2021/03/01 10:38:07;;;;;;;11.65;8.15;;;;;;;;;;4218839;33;20442;-54
2021/03/01 10:40:33;;;;;;;10.88;8.50;;;;;;;;;;4219165;34;20113;-52
2021/03/01 10:43:10;;;;;;;9.68;7.50;;;;;;;;;;4218877;34;20101;-51
2021/03/01 10:45:43;;;;;;;9.35;7.75;;;;;;;;;;4218852;34;20117;-54
2021/03/01 10:48:09;;;;;;;9.60;8.60;;;;;;;;;;4220798;33;20125;-48
2021/03/01 10:50:35;;;;;;;11.57;8.35;;;;;;;;;;4232781;33;20117;-50
2021/03/01 10:53:01;;;;;;;9.48;8.48;;;;;;;;;;4232750;33;20136;-52
2021/03/01 10:55:27;;;;;;;9.95;8.52;;;;;;;;;;4232565;33;20117;-53
2021/03/01 10:57:52;;;;;;;10.05;7.75;;;;;;;;;;4232999;33;20223;-49
2021/03/01 11:00:19;;;;;;;10.27;8.13;;;;;;;;;;4228445;33;20131;-52
2021/03/01 11:02:45;;;;;;;8.93;7.87;;;;;;;;;;4218941;34;20220;-49
2021/03/01 11:05:11;;;;;;;9.70;7.80;;;;;;;;;;4205783;34;20512;-52
2021/03/01 11:07:37;;;;;;;9.13;7.62;;;;;;;;;;4218784;34;20527;-49
2021/03/01 11:10:03;;;;;;;10.18;7.57;;;;;;;;;;4218579;34;20444;-47
2021/03/01 11:12:29;;;;;;;11.98;7.85;;;;;;;;;;4205639;34;20501;-49
2021/03/01 11:14:55;;;;;;;9.30;7.45;;;;;;;;;;4214886;33;20196;-50
2021/03/01 11:17:21;;;;;;;11.10;7.87;;;;;;;;;;4232737;33;20220;-49
2021/03/01 11:19:47;;;;;;;12.65;8.48;;;;;;;;;;4232541;33;20512;-53
2021/03/01 11:22:14;;;;;;;9.32;7.53;;;;;;;;;;4232483;33;20501;-52
2021/03/01 11:24:40;;;;;;;11.15;8.00;;;;;;;;;;4232577;33;20196;-45
2021/03/01 11:27:06;;;;;;;9.07;7.62;;;;;;;;;;4219412;33;20220;-51
2021/03/01 11:29:33;;;;;;;8.65;7.00;;;;;;;;;;4232586;33;20526;-54
2021/03/01 11:31:59;;;;;;;10.40;7.30;;;;;;;;;;4232519;33;20140;-51
2021/03/01 11:34:25;;;;;;;8.65;7.60;;;;;;;;;;4232469;33;20121;-50
2021/03/01 11:36:51;;;;;;;8.55;7.65;;;;;;;;;;4232689;33;20124;-51
2021/03/01 11:39:17;;;;;;;8.43;7.53;;;;;;;;;;4232434;33;20100;-48
2021/03/01 11:41:43;;;;;;;8.82;7.35;;;;;;;;;;4232359;33;20113;-51
2021/03/01 11:44:09;;;;;;;10.15;7.62;;;;;;;;;;4219394;33;20558;-45
2021/03/01 11:46:35;;;;;;;10.40;7.32;;;;;;;;;;4232617;33;20197;-46
2021/03/01 11:49:01;;;;;;;9.18;7.30;;;;;;;;;;4223100;33;20129;-50
2021/03/01 11:51:27;;;;;;;8.77;7.43;;;;;;;;;;4218570;34;20117;-49
2021/03/01 11:53:53;;;;;;;9.50;8.02;;;;;;;;;;4218160;34;20200;-50
2021/03/01 11:56:22;;;;;;;11.25;7.95;;;;;;;;;;4218466;34;20209;-51
2021/03/01 11:58:48;;;;;;;10.63;7.28;;;;;;;;;;4218247;34;20513;-50
2021/03/01 12:01:14;;;;;;;8.82;7.37;;;;;;;;;;4218402;34;20124;-54
2021/03/01 12:03:40;;;;;;;11.40;7.85;;;;;;;;;;4218163;34;20524;-53
2021/03/01 12:06:07;;;;;;;8.70;7.68;;;;;;;;;;4218120;34;20196;-50
2021/03/01 12:08:33;;;;;;;11.32;8.48;;;;;;;;;;4218370;34;20119;-51
2021/03/01 12:10:59;;;;;;;9.60;7.20;;;;;;;;;;4218119;34;20225;-54
2021/03/01 12:13:25;;;;;;;10.20;7.87;;;;;;;;;;4218132;34;20102;-53
2021/03/01 12:15:51;;;;;;;10.70;8.68;;;;;;;;;;4229187;33;20496;-52
2021/03/01 12:18:17;;;;;;;10.40;8.07;;;;;;;;;;4232308;33;20128;-45
2021/03/01 12:20:43;;;;;;;10.15;8.07;;;;;;;;;;4218984;33;20101;-52
2021/03/01 12:23:09;;;;;;;12.23;8.13;;;;;;;;;;4232159;33;20141;-51
2021/03/01 12:25:36;;;;;;;11.25;8.30;;;;;;;;;;4234366;33;20156;-49
2021/03/01 12:28:03;;;;;;;9.77;7.12;;;;;;;;;;4234381;33;20112;-50
2021/03/01 12:30:29;;;;;;;10.05;7.40;;;;;;;;;;4234120;33;20164;-54
2021/03/01 12:32:55;;;;;;;9.98;8.35;;;;;;;;;;4234100;33;20112;-54
2021/03/01 12:35:21;;;;;;;8.10;7.25;;;;;;;;;;4234032;33;20419;-52
2021/03/01 12:37:47;;;;;;;9.10;7.93;;;;;;;;;;4234175;33;20112;-50
2021/03/01 12:40:13;;;;;;;9.60;8.00;;;;;;;;;;4234059;33;20117;-54
2021/03/01 12:42:39;;;;;;;11.10;7.75;;;;;;;;;;4234073;33;20440;-50
2021/03/01 12:45:05;;;;;;;10.70;8.77;;;;;;;;;;4233979;33;20124;-50
2021/03/01 12:47:31;;;;;;;10.73;8.73;;;;;;;;;;4221242;33;20093;-53
2021/03/01 12:49:57;;;;;;;14.05;9.30;;;;;;;;;;4233903;33;20119;-51
2021/03/01 12:52:23;;;;;;;10.38;8.70;;;;;;;;;;4233922;33;20125;-48
2021/03/01 12:54:49;;;;;;;10.40;8.32;;;;;;;;;;4233860;33;20097;-47
2021/03/01 12:57:15;;;;;;;11.90;8.95;;;;;;;;;;4233869;33;20135;-48
2021/03/01 12:59:41;;;;;;;10.32;8.30;;;;;;;;;;4233945;33;20125;-50
2021/03/01 13:02:07;;;;;;;10.48;8.88;;;;;;;;;;4233786;33;20161;-43
2021/03/01 13:04:33;;;;;;;12.55;8.65;;;;;;;;;;4234196;33;20113;-44
2021/03/01 13:06:59;;;;;;;14.18;9.50;;;;;;;;;;4233608;33;20096;-45
2021/03/01 13:09:26;;;;;;;11.82;8.55;;;;;;;;;;4233822;33;20112;-43
2021/03/01 13:11:51;;;;;;;13.48;9.25;;;;;;;;;;4234087;33;20115;-48
2021/03/01 13:14:17;;;;;;;14.65;8.75;;;;;;;;;;4233624;33;20525;-49
2021/03/01 13:16:43;;;;;;;11.45;8.23;;;;;;;;;;4233553;33;20109;-49
2021/03/01 13:19:09;;;;;;;10.60;8.93;;;;;;;;;;4233618;33;20208;-52
2021/03/01 13:21:35;;;;;;;13.35;9.68;;;;;;;;;;4233600;33;20105;-46
2021/03/01 13:24:01;;;;;;;10.05;8.20;;;;;;;;;;4233770;33;20451;-51
2021/03/01 13:26:27;;;;;;;11.73;8.75;;;;;;;;;;4233715;33;20097;-48
2021/03/01 13:28:53;;;;;;;10.65;8.55;;;;;;;;;;4233697;33;20454;-50
2021/03/01 13:31:19;;;;;;;12.68;8.70;;;;;;;;;;4233611;33;20572;-51
2021/03/01 13:33:45;;;;;;;12.88;8.27;;;;;;;;;;4233363;33;20131;-51
2021/03/01 13:36:12;;;;;;;11.25;7.90;;;;;;;;;;4219499;33;20200;-51
2021/03/01 13:38:38;;;;;;;9.27;8.30;;;;;;;;;;4233603;33;20527;-49
2021/03/01 13:41:04;;;;;;;12.98;8.50;;;;;;;;;;4233522;33;20140;-49
2021/03/01 13:43:30;;;;;;;11.60;8.10;;;;;;;;;;4233525;33;20144;-55
2021/03/01 13:45:56;;;;;;;14.87;11.23;;;;;;;;;;4233292;33;20211;-44
2021/03/01 13:48:22;;;;;;;14.32;12.35;;;;;;;;;;4233447;33;20121;-49
2021/03/01 13:50:48;;;;;;;15.38;12.57;;;;;;;;;;4220132;33;20528;-50
2021/03/01 13:53:14;;;;;;;16.25;12.93;;;;;;;;;;4233675;33;20444;-46
2021/03/01 13:55:40;;;;;;;17.27;13.05;;;;;;;;;;4233570;33;20540;-45
2021/03/01 13:58:06;;;;;;;16.73;13.32;;;;;;;;;;4233295;33;20124;-45
2021/03/01 14:00:33;;;;;;;16.35;12.68;;;;;;;;;;4233352;33;20528;-49
2021/03/01 14:02:59;;;;;;;15.23;12.02;;;;;;;;;;4233466;33;20128;-52
2021/03/01 14:05:24;;;;;;;13.60;10.95;;;;;;;;;;4233464;33;20120;-49
2021/03/01 14:07:50;;;;;;;11.60;10.10;;;;;;;;;;4233220;33;20121;-48
2021/03/01 14:10:16;;;;;;;14.82;9.90;;;;;;;;;;4233213;33;20112;-52
2021/03/01 14:12:42;;;;;;;12.75;8.88;;;;;;;;;;4220187;33;20101;-48
2021/03/01 14:15:19;;;;;;;9.95;8.68;;;;;;;;;;4232548;33;20302;-49
2021/03/01 14:17:46;;;;;;;11.52;8.75;;;;;;;;;;4213284;33;20463;-46
2021/03/01 14:20:13;;;;;;;13.27;9.32;;;;;;;;;;4205362;34;20132;-48
2021/03/01 14:22:39;;;;;;;11.73;9.20;;;;;;;;;;4205331;34;20122;-52
2021/03/01 14:25:06;;;;;;;14.25;8.50;;;;;;;;;;4212329;34;20113;-51
2021/03/01 14:27:32;;;;;;;16.05;8.68;;;;;;;;;;4203775;34;20104;-47
2021/03/01 14:29:58;;;;;;;12.13;8.70;;;;;;;;;;4218665;33;20105;-46
2021/03/01 14:32:24;;;;;;;10.43;8.43;;;;;;;;;;4229093;33;20112;-49
2021/03/01 14:34:50;;;;;;;14.13;9.07;;;;;;;;;;4223651;33;20097;-46
2021/03/01 14:37:16;;;;;;;11.15;8.57;;;;;;;;;;4232688;33;20112;-45
2021/03/01 14:39:42;;;;;;;13.80;9.75;;;;;;;;;;4220802;33;20148;-51
2021/03/01 14:42:08;;;;;;;13.45;9.07;;;;;;;;;;4218788;34;20286;-48
2021/03/01 14:44:34;;;;;;;10.98;9.13;;;;;;;;;;4219005;34;20132;-49